Time;durP1;ratioP1;P1;durP2;ratioP2;P2;SDS_P1;SDS_P2;PMS_P1;PMS_P2;Temp;Humidity;BMP_temperature;BMP_pressure;BME280_temperature;BME280_humidity;BME280_pressure;Samples;Min_cycle;Max_cycle;Signal;HPM_P1;HPM_P2
2022/07/13 00:01:15;;;;;;;10.37;7.50;;;21.40;99.90;;;;;;5093706;28;20047;-70
2022/07/13 00:03:40;;;;;;;10.60;7.07;;;21.40;99.90;;;;;;5093516;28;20189;-71
2022/07/13 00:06:07;;;;;;;9.40;7.80;;;21.40;99.90;;;;;;5094055;28;20044;-71
2022/07/13 00:08:33;;;;;;;14.00;7.63;;;21.40;99.90;;;;;;5093228;28;20052;-71
2022/07/13 00:10:59;;;;;;;8.37;7.53;;;21.40;99.90;;;;;;5093408;28;20089;-71
2022/07/13 00:13:25;;;;;;;10.47;7.67;;;21.40;99.90;;;;;;5093715;28;20105;-71
2022/07/13 00:15:50;;;;;;;9.20;8.30;;;21.40;99.90;;;;;;5092143;28;20519;-71
2022/07/13 00:18:16;;;;;;;7.90;7.00;;;21.40;99.90;;;;;;5093404;28;20052;-71
2022/07/13 00:20:43;;;;;;;9.70;8.70;;;21.40;99.90;;;;;;5093857;28;20131;-70
2022/07/13 00:23:09;;;;;;;8.97;7.70;;;21.40;99.90;;;;;;5092134;28;20055;-71
2022/07/13 00:25:35;;;;;;;11.40;7.93;;;21.40;99.90;;;;;;5093040;28;20047;-70
2022/07/13 00:28:00;;;;;;;11.37;8.27;;;21.40;99.90;;;;;;5093185;28;20124;-70
2022/07/13 00:30:26;;;;;;;8.90;7.50;;;21.40;99.90;;;;;;5093250;28;20476;-70
2022/07/13 00:32:52;;;;;;;9.40;7.80;;;21.40;99.90;;;;;;5092900;28;20082;-70
2022/07/13 00:35:17;;;;;;;9.20;7.70;;;21.40;99.90;;;;;;5092283;28;20054;-73
2022/07/13 00:37:43;;;;;;;11.37;8.77;;;21.40;99.90;;;;;;5092106;28;20044;-71
2022/07/13 00:40:09;;;;;;;13.17;8.57;;;21.40;99.90;;;;;;5091779;28;20512;-71
2022/07/13 00:42:35;;;;;;;9.27;8.07;;;21.40;99.90;;;;;;5092160;28;20056;-71
2022/07/13 00:45:01;;;;;;;11.33;8.23;;;21.30;99.90;;;;;;5093668;28;20075;-72
2022/07/13 00:47:31;;;;;;;9.90;8.90;;;21.30;99.90;;;;;;5093070;28;20048;-71
2022/07/13 00:50:06;;;;;;;12.07;9.17;;;21.30;99.90;;;;;;5095315;28;20047;-72
2022/07/13 00:52:33;;;;;;;10.45;9.00;;;21.30;99.90;;;;;;5096278;28;20063;-71
2022/07/13 00:54:59;;;;;;;9.23;8.07;;;21.30;99.90;;;;;;5095912;28;20510;-71
2022/07/13 00:57:27;;;;;;;9.07;7.13;;;21.20;99.90;;;;;;5095903;28;20055;-72
2022/07/13 00:59:53;;;;;;;8.90;7.80;;;21.30;99.90;;;;;;5096777;28;20044;-71
2022/07/13 01:02:18;;;;;;;10.20;8.50;;;21.30;99.90;;;;;;5095726;28;20472;-72
2022/07/13 01:04:45;;;;;;;13.40;9.67;;;21.30;99.90;;;;;;5096782;28;20048;-71
2022/07/13 01:07:11;;;;;;;10.53;9.43;;;21.30;99.90;;;;;;5096601;28;20093;-72
2022/07/13 01:09:37;;;;;;;10.20;9.13;;;21.30;99.90;;;;;;5096706;28;20083;-71
2022/07/13 01:12:05;;;;;;;13.57;9.40;;;21.30;99.90;;;;;;5096848;28;20442;-72
2022/07/13 01:14:31;;;;;;;13.63;9.70;;;21.30;99.90;;;;;;5097362;28;20119;-71
2022/07/13 01:16:58;;;;;;;11.43;9.80;;;21.30;99.90;;;;;;5097259;28;20522;-71
2022/07/13 01:19:24;;;;;;;15.70;10.20;;;21.20;99.90;;;;;;5095915;28;20345;-71
2022/07/13 01:21:58;;;;;;;11.47;10.37;;;21.20;99.90;;;;;;5095488;28;20036;-71
2022/07/13 01:24:24;;;;;;;10.57;9.57;;;21.20;99.90;;;;;;5096891;28;20098;-71
2022/07/13 01:26:50;;;;;;;12.03;10.37;;;21.20;99.90;;;;;;5096864;28;20044;-71
2022/07/13 01:29:16;;;;;;;11.70;10.43;;;21.20;99.90;;;;;;5095335;28;20052;-72
2022/07/13 01:31:42;;;;;;;12.90;10.50;;;21.20;99.90;;;;;;5096195;28;20488;-71
2022/07/13 01:34:08;;;;;;;13.27;9.90;;;21.20;99.90;;;;;;5096207;28;20118;-71
2022/07/13 01:36:35;;;;;;;11.37;10.10;;;21.20;99.90;;;;;;5096074;28;20048;-71
2022/07/13 01:39:01;;;;;;;10.97;9.87;;;21.10;99.90;;;;;;5096387;28;20056;-71
2022/07/13 01:41:31;;;;;;;11.60;10.00;;;21.10;99.90;;;;;;5096228;28;20067;-71
2022/07/13 01:43:58;;;;;;;12.07;10.90;;;21.10;99.90;;;;;;5096045;28;20040;-70
2022/07/13 01:46:24;;;;;;;13.87;10.57;;;21.10;99.90;;;;;;5096174;28;20429;-72
2022/07/13 01:48:51;;;;;;;10.83;9.60;;;21.10;99.90;;;;;;5094853;28;20087;-71
2022/07/13 01:51:16;;;;;;;11.77;10.57;;;21.10;99.90;;;;;;5095734;28;20395;-72
2022/07/13 01:53:42;;;;;;;11.73;10.40;;;21.10;99.90;;;;;;5095798;28;20036;-72
2022/07/13 01:56:08;;;;;;;10.97;9.70;;;21.10;99.90;;;;;;5095533;28;20048;-72
2022/07/13 01:58:33;;;;;;;11.67;10.47;;;21.10;99.90;;;;;;5096235;28;20048;-72
2022/07/13 02:00:59;;;;;;;13.83;10.60;;;21.10;99.90;;;;;;5093842;28;20077;-72
2022/07/13 02:03:28;;;;;;;13.37;11.97;;;21.10;99.90;;;;;;5096415;28;20051;-72
2022/07/13 02:05:54;;;;;;;14.43;10.83;;;21.10;99.90;;;;;;5095573;28;20040;-71
2022/07/13 02:08:20;;;;;;;12.23;10.67;;;21.10;99.90;;;;;;5095509;28;20047;-72
2022/07/13 02:10:46;;;;;;;12.30;10.80;;;21.10;99.90;;;;;;5095031;28;20529;-71
2022/07/13 02:13:11;;;;;;;12.53;11.07;;;21.10;99.90;;;;;;5094192;28;20055;-72
2022/07/13 02:15:37;;;;;;;12.87;11.77;;;21.00;99.90;;;;;;5095391;28;20048;-71
2022/07/13 02:18:04;;;;;;;11.80;10.60;;;21.00;99.90;;;;;;5095901;28;20123;-71
2022/07/13 02:20:30;;;;;;;13.57;12.17;;;21.00;99.90;;;;;;5095996;28;20124;-71
2022/07/13 02:22:55;;;;;;;12.97;11.43;;;21.00;99.90;;;;;;5095325;28;20488;-71
2022/07/13 02:25:21;;;;;;;13.00;11.47;;;21.00;99.90;;;;;;5095233;28;20551;-71
2022/07/13 02:27:47;;;;;;;11.97;10.77;;;21.00;99.90;;;;;;5095196;28;20104;-71
2022/07/13 02:30:15;;;;;;;13.57;10.97;;;21.00;99.90;;;;;;5095400;28;20464;-71
2022/07/13 02:32:43;;;;;;;12.17;10.70;;;21.00;99.90;;;;;;5095074;28;20506;-71
2022/07/13 02:35:09;;;;;;;14.20;12.20;;;21.00;99.90;;;;;;5095044;28;20048;-71
2022/07/13 02:37:36;;;;;;;11.50;10.47;;;21.00;99.90;;;;;;5095754;28;20150;-71
2022/07/13 02:40:03;;;;;;;12.30;10.90;;;21.00;99.90;;;;;;5093234;28;20052;-72
2022/07/13 02:42:28;;;;;;;12.63;10.93;;;21.00;99.90;;;;;;5094850;28;20131;-71
2022/07/13 02:44:54;;;;;;;12.63;10.83;;;21.00;99.90;;;;;;5093625;28;20131;-71
2022/07/13 02:47:20;;;;;;;17.50;11.57;;;20.90;99.90;;;;;;5095311;28;20048;-71
2022/07/13 02:49:46;;;;;;;12.53;11.23;;;20.90;99.90;;;;;;5094800;28;20071;-71
2022/07/13 02:52:12;;;;;;;12.13;10.87;;;20.90;99.90;;;;;;5094723;28;20054;-71
2022/07/13 02:54:38;;;;;;;12.33;10.83;;;20.90;99.90;;;;;;5095164;28;20040;-71
2022/07/13 02:57:05;;;;;;;14.53;11.17;;;20.90;99.90;;;;;;5094600;28;20094;-72
2022/07/13 02:59:37;;;;;;;14.10;10.93;;;20.80;99.90;;;;;;5093462;28;20084;-71
2022/07/13 03:02:04;;;;;;;12.97;11.67;;;20.80;99.90;;;;;;5094553;28;20046;-71
2022/07/13 03:04:30;;;;;;;11.03;9.73;;;20.80;99.90;;;;;;5094478;28;20047;-72
2022/07/13 03:06:56;;;;;;;13.10;10.97;;;20.80;99.90;;;;;;5094924;28;20055;-71
2022/07/13 03:09:23;;;;;;;12.07;10.87;;;20.80;99.90;;;;;;5093640;28;20047;-71
2022/07/13 03:11:48;;;;;;;11.53;10.27;;;20.80;99.90;;;;;;5094267;28;20047;-71
2022/07/13 03:14:14;;;;;;;11.93;10.73;;;20.80;99.90;;;;;;5094316;28;20047;-74
2022/07/13 03:16:40;;;;;;;13.90;11.70;;;20.80;99.90;;;;;;5094313;28;20535;-71
2022/07/13 03:19:07;;;;;;;12.77;11.47;;;20.80;99.90;;;;;;5094273;28;20063;-71
2022/07/13 03:21:33;;;;;;;15.67;10.80;;;20.80;99.90;;;;;;5092849;28;20106;-71
2022/07/13 03:23:59;;;;;;;12.73;11.37;;;20.70;99.90;;;;;;5094154;28;20093;-71
2022/07/13 03:26:24;;;;;;;14.03;12.10;;;20.70;99.90;;;;;;5094053;28;20055;-71
2022/07/13 03:28:50;;;;;;;12.60;10.87;;;20.70;99.90;;;;;;5094356;28;20400;-71
2022/07/13 03:31:17;;;;;;;12.97;11.77;;;20.70;99.90;;;;;;5093975;28;20475;-74
2022/07/13 03:33:43;;;;;;;15.30;12.27;;;20.70;99.90;;;;;;5093680;28;20498;-71
2022/07/13 03:36:09;;;;;;;13.47;11.60;;;20.70;99.90;;;;;;5092846;28;20059;-71
2022/07/13 03:38:35;;;;;;;14.30;12.40;;;20.70;99.90;;;;;;5093425;28;20278;-71
2022/07/13 03:41:03;;;;;;;13.97;12.53;;;20.70;99.90;;;;;;5093463;28;20044;-71
2022/07/13 03:43:29;;;;;;;15.63;11.97;;;20.70;99.90;;;;;;5093529;28;20055;-71
2022/07/13 03:45:55;;;;;;;12.33;11.13;;;20.70;99.90;;;;;;5076760;28;20105;-71
2022/07/13 03:48:21;;;;;;;12.87;11.57;;;20.70;99.90;;;;;;5093751;28;20036;-72
2022/07/13 03:50:47;;;;;;;13.20;11.83;;;20.70;99.90;;;;;;5093729;28;20050;-71
2022/07/13 03:53:14;;;;;;;17.13;12.33;;;20.70;99.90;;;;;;5093739;28;20043;-71
2022/07/13 03:55:41;;;;;;;13.60;12.30;;;20.70;99.90;;;;;;5094197;28;20044;-71
2022/07/13 03:58:07;;;;;;;13.73;11.63;;;20.70;99.90;;;;;;5093644;28;20044;-71
2022/07/13 04:00:32;;;;;;;13.27;11.67;;;20.70;99.90;;;;;;5093587;28;20043;-71
2022/07/13 04:02:58;;;;;;;13.13;11.93;;;20.70;99.90;;;;;;5092617;28;20040;-71
2022/07/13 04:05:25;;;;;;;14.27;12.77;;;20.70;99.90;;;;;;5093331;28;20044;-71
2022/07/13 04:07:51;;;;;;;15.47;12.07;;;20.70;99.90;;;;;;5093464;28;20052;-71
2022/07/13 04:10:21;;;;;;;14.63;12.30;;;20.70;99.90;;;;;;5093797;28;20119;-71
2022/07/13 04:12:47;;;;;;;13.37;12.00;;;20.70;99.90;;;;;;5092527;28;20048;-71
2022/07/13 04:15:14;;;;;;;14.37;11.27;;;20.70;99.90;;;;;;5093471;28;20048;-71
2022/07/13 04:17:40;;;;;;;13.63;11.37;;;20.70;99.90;;;;;;5093384;28;20380;-71
2022/07/13 04:20:07;;;;;;;13.53;11.90;;;20.70;99.90;;;;;;5093596;28;20036;-71
2022/07/13 04:22:32;;;;;;;13.60;12.20;;;20.70;99.90;;;;;;5092108;28;20101;-72
2022/07/13 04:24:58;;;;;;;13.20;11.90;;;20.70;99.90;;;;;;5129665;27;20056;-71
2022/07/13 04:27:24;;;;;;;13.30;11.90;;;20.70;99.90;;;;;;5096309;28;20055;-72
2022/07/13 04:29:49;;;;;;;14.27;11.73;;;20.80;99.90;;;;;;5097451;28;20044;-71
2022/07/13 04:32:15;;;;;;;15.17;12.40;;;20.80;99.90;;;;;;5097066;28;20048;-71
2022/07/13 04:34:41;;;;;;;12.40;11.20;;;20.70;99.90;;;;;;5097907;28;20093;-71
2022/07/13 04:37:06;;;;;;;12.20;10.97;;;20.80;99.90;;;;;;5098156;28;20353;-71
2022/07/13 04:39:32;;;;;;;11.67;10.47;;;20.80;99.90;;;;;;5095717;28;20142;-71
2022/07/13 04:41:59;;;;;;;14.23;11.00;;;20.80;99.90;;;;;;5097221;28;20055;-71
2022/07/13 04:44:26;;;;;;;12.13;10.87;;;20.80;99.90;;;;;;5097223;28;20392;-72
2022/07/13 04:46:53;;;;;;;12.63;11.17;;;20.80;99.90;;;;;;5097941;28;20127;-71
2022/07/13 04:49:19;;;;;;;12.57;11.23;;;20.80;99.90;;;;;;5097108;28;20052;-71
2022/07/13 04:51:49;;;;;;;11.97;10.67;;;20.80;99.90;;;;;;5097105;28;20123;-71
2022/07/13 04:54:16;;;;;;;12.43;11.23;;;20.80;99.90;;;;;;5097042;28;20055;-71
2022/07/13 04:56:42;;;;;;;12.07;10.77;;;20.80;99.90;;;;;;5095717;28;20503;-71
2022/07/13 04:59:08;;;;;;;11.77;10.57;;;20.80;99.90;;;;;;5095964;28;20480;-71
2022/07/13 05:01:33;;;;;;;12.47;10.20;;;20.80;99.90;;;;;;5096848;28;20047;-71
2022/07/13 05:03:59;;;;;;;10.83;9.73;;;20.80;99.90;;;;;;5096850;28;20118;-71
2022/07/13 05:06:25;;;;;;;12.23;10.03;;;20.80;99.90;;;;;;5097056;28;20055;-71
2022/07/13 05:08:51;;;;;;;13.37;10.77;;;20.80;99.90;;;;;;5096923;28;20097;-71
2022/07/13 05:11:17;;;;;;;12.00;10.63;;;20.80;99.90;;;;;;5095779;28;20164;-71
2022/07/13 05:13:43;;;;;;;11.93;10.23;;;20.80;99.90;;;;;;5096627;28;20480;-71
2022/07/13 05:16:08;;;;;;;12.47;11.00;;;20.90;99.90;;;;;;5096596;28;20131;-71
2022/07/13 05:18:34;;;;;;;11.87;10.13;;;20.90;99.90;;;;;;5096501;28;20079;-71
2022/07/13 05:21:00;;;;;;;11.63;10.27;;;20.90;99.90;;;;;;5097228;28;20043;-71
2022/07/13 05:23:26;;;;;;;14.57;9.20;;;20.90;99.90;;;;;;5096725;28;20459;-71
2022/07/13 05:25:52;;;;;;;11.67;10.37;;;20.90;99.90;;;;;;5097161;28;20087;-71
2022/07/13 05:28:17;;;;;;;11.20;10.00;;;20.90;99.90;;;;;;5095399;28;20043;-71
2022/07/13 05:30:43;;;;;;;11.50;9.50;;;20.90;99.90;;;;;;5096567;28;20091;-71
2022/07/13 05:33:09;;;;;;;11.17;9.27;;;21.00;99.90;;;;;;5095043;28;20044;-71
2022/07/13 05:35:35;;;;;;;11.40;10.13;;;21.00;99.90;;;;;;5094992;28;20048;-71
2022/07/13 05:38:00;;;;;;;11.83;9.77;;;21.00;99.90;;;;;;5096422;28;20388;-71
2022/07/13 05:40:26;;;;;;;13.93;10.43;;;21.00;99.90;;;;;;5097207;28;20443;-71
2022/07/13 05:42:52;;;;;;;10.70;9.53;;;21.10;99.90;;;;;;5096084;28;20141;-71
2022/07/13 05:45:19;;;;;;;11.43;10.23;;;21.10;99.90;;;;;;5096117;28;20059;-71
2022/07/13 05:47:48;;;;;;;12.37;9.83;;;21.10;99.90;;;;;;5095012;28;20396;-71
2022/07/13 05:50:15;;;;;;;10.20;9.20;;;21.20;99.90;;;;;;5094741;28;20127;-71
2022/07/13 05:52:41;;;;;;;13.63;10.43;;;21.20;99.90;;;;;;5095559;28;20492;-71
2022/07/13 05:55:08;;;;;;;12.67;10.23;;;21.20;99.90;;;;;;5095864;28;20063;-71
2022/07/13 05:57:34;;;;;;;11.67;9.83;;;21.30;99.90;;;;;;5095665;28;20060;-71
2022/07/13 06:00:01;;;;;;;11.37;9.77;;;21.30;99.90;;;;;;5096455;28;20384;-71
2022/07/13 06:02:26;;;;;;;12.13;10.43;;;21.40;99.90;;;;;;5095760;28;20044;-71
2022/07/13 06:04:52;;;;;;;11.80;9.97;;;21.40;99.90;;;;;;5095711;28;20097;-71
2022/07/13 06:07:18;;;;;;;12.23;10.13;;;21.50;99.90;;;;;;5094588;28;20065;-71
2022/07/13 06:09:43;;;;;;;13.87;10.60;;;21.50;99.90;;;;;;5095782;28;20054;-71
2022/07/13 06:12:09;;;;;;;10.97;9.47;;;21.50;99.90;;;;;;5095490;28;20135;-71
2022/07/13 06:14:35;;;;;;;11.20;9.73;;;21.70;99.90;;;;;;5095464;28;20040;-72
2022/07/13 06:17:00;;;;;;;12.60;9.17;;;21.80;99.90;;;;;;5095948;28;20491;-71
2022/07/13 06:19:26;;;;;;;15.30;9.80;;;22.00;99.90;;;;;;5095882;28;20051;-71
2022/07/13 06:21:52;;;;;;;11.03;8.73;;;22.20;99.90;;;;;;5095209;28;20388;-71
2022/07/13 06:24:17;;;;;;;10.60;8.80;;;22.40;99.90;;;;;;5095258;28;20084;-71
2022/07/13 06:26:44;;;;;;;12.23;9.93;;;22.60;99.90;;;;;;5095210;28;20087;-72
2022/07/13 06:29:10;;;;;;;11.00;8.77;;;22.70;99.90;;;;;;5095133;28;20044;-71
2022/07/13 06:31:36;;;;;;;12.27;9.17;;;22.90;99.90;;;;;;5095907;28;20067;-74
2022/07/13 06:34:01;;;;;;;10.83;9.00;;;23.90;99.90;;;;;;5093789;28;20403;-71
2022/07/13 06:36:27;;;;;;;11.60;8.50;;;24.00;99.90;;;;;;5095547;28;20048;-71
2022/07/13 06:38:53;;;;;;;11.37;7.90;;;24.60;99.90;;;;;;5093855;28;20537;-72
2022/07/13 06:41:19;;;;;;;10.73;7.13;;;25.80;99.90;;;;;;5093776;28;20087;-71
2022/07/13 06:43:44;;;;;;;11.43;7.27;;;26.40;99.90;;;;;;5094909;28;20044;-72
2022/07/13 06:46:10;;;;;;;14.00;7.23;;;;;;;;;;5094905;28;20125;-72
2022/07/13 06:48:37;;;;;;;10.73;7.27;;;;;;;;;;5094526;28;20479;-71
2022/07/13 06:51:03;;;;;;;12.67;6.83;;;30.10;72.40;;;;;;5094318;28;20055;-74
2022/07/13 06:53:30;;;;;;;8.53;6.67;;;;;;;;;;5076891;28;20052;-71
2022/07/13 06:55:55;;;;;;;10.93;6.83;;;31.90;65.50;;;;;;5095440;28;20048;-72
2022/07/13 06:58:22;;;;;;;10.70;7.10;;;;;;;;;;5094609;28;20450;-71
2022/07/13 07:00:48;;;;;;;8.90;7.05;;;;;;;;;;5094510;28;20127;-72
2022/07/13 07:03:14;;;;;;;9.73;7.30;;;33.60;53.70;;;;;;5094485;28;20044;-71
2022/07/13 07:05:40;;;;;;;9.23;6.75;;;;;;;;;;5094932;28;20143;-74
2022/07/13 07:08:07;;;;;;;13.55;6.45;;;34.20;50.40;;;;;;5095173;28;20040;-71
2022/07/13 07:10:33;;;;;;;9.65;6.57;;;;;;;;;;5093523;28;20192;-71
2022/07/13 07:12:59;;;;;;;12.00;6.75;;;;;;;;;;5094251;28;20108;-71
2022/07/13 07:15:25;;;;;;;7.93;5.75;;;35.00;47.30;;;;;;5094480;28;20086;-71
2022/07/13 07:17:50;;;;;;;9.63;6.45;;;35.30;50.80;;;;;;5093132;28;20098;-71
2022/07/13 07:20:17;;;;;;;9.82;6.70;;;35.40;49.60;;;;;;5092940;28;20040;-71
2022/07/13 07:22:45;;;;;;;7.88;5.30;;;;;;;;;;5094179;28;20203;-71
2022/07/13 07:25:11;;;;;;;8.00;5.38;;;36.00;85.40;;;;;;5094202;28;20052;-71
2022/07/13 07:27:37;;;;;;;9.63;4.68;;;;;;;;;;5094065;28;20040;-71
2022/07/13 07:30:03;;;;;;;9.05;5.28;;;;;;;;;;5094091;28;20052;-71
2022/07/13 07:32:29;;;;;;;10.77;5.80;;;;;;;;;;5094558;28;20434;-71
2022/07/13 07:34:56;;;;;;;8.50;4.80;;;;;;;;;;5093940;28;20058;-71
2022/07/13 07:37:22;;;;;;;8.73;5.25;;;;;;;;;;5093957;28;20059;-71
2022/07/13 07:39:52;;;;;;;9.02;5.15;;;;;;;;;;5094294;28;20063;-71
2022/07/13 07:42:18;;;;;;;8.02;4.90;;;37.20;55.00;;;;;;5093892;28;20132;-71
2022/07/13 07:44:44;;;;;;;10.95;5.38;;;;;;;;;;5093825;28;20067;-74
2022/07/13 07:47:11;;;;;;;8.63;5.13;;;;;;;;;;5093843;28;20101;-71
2022/07/13 07:49:37;;;;;;;8.00;4.55;;;;;;;;;;5093864;28;20052;-71
2022/07/13 07:52:03;;;;;;;7.65;4.50;;;;;;;;;;5093703;28;20044;-71
2022/07/13 07:54:29;;;;;;;8.40;5.20;;;;;;;;;;5092480;28;20040;-69
2022/07/13 07:56:55;;;;;;;8.88;5.30;;;;;;;;;;5094428;28;20063;-72
2022/07/13 07:59:21;;;;;;;8.35;4.70;;;;;;;;;;5092933;28;20047;-71
2022/07/13 08:01:47;;;;;;;8.63;4.57;;;;;;;;;;5091999;28;20036;-72
2022/07/13 08:04:13;;;;;;;9.68;5.25;;;38.00;74.30;;;;;;5093594;28;20040;-70
2022/07/13 08:06:39;;;;;;;8.43;5.55;;;;;;;;;;5093581;28;20040;-71
2022/07/13 08:09:06;;;;;;;12.27;5.05;;;;;;;;;;5094302;28;20368;-70
2022/07/13 08:11:32;;;;;;;9.00;4.40;;;;;;;;;;5093761;28;20047;-70
2022/07/13 08:13:58;;;;;;;6.97;3.97;;;;;;;;;;5093426;28;20044;-69
2022/07/13 08:16:24;;;;;;;5.65;3.67;;;;;;;;;;5093319;28;20101;-69
2022/07/13 08:18:50;;;;;;;7.93;3.75;;;41.90;38.90;;;;;;5093387;28;20044;-69
2022/07/13 08:21:15;;;;;;;8.80;3.78;;;38.40;68.10;;;;;;5093370;28;20067;-69
2022/07/13 08:23:50;;;;;;;6.03;3.50;;;;;;;;;;5093431;28;20487;-68
2022/07/13 08:26:17;;;;;;;7.38;4.18;;;;;;;;;;5093403;28;20040;-71
2022/07/13 08:28:44;;;;;;;5.72;3.38;;;;;;;;;;5094119;28;20044;-68
2022/07/13 08:31:11;;;;;;;8.00;4.43;;;;;;;;;;5093533;28;20113;-72
2022/07/13 08:39:07;;;;;;;6.05;3.75;;;;;;;;;;5093046;28;20135;-72
2022/07/13 08:41:32;;;;;;;6.97;3.70;;;38.40;35.80;;;;;;5093685;28;20048;-72
2022/07/13 08:44:00;;;;;;;7.35;4.00;;;38.20;37.80;;;;;;5093918;28;20059;-73
2022/07/13 08:46:26;;;;;;;10.90;3.65;;;37.80;37.60;;;;;;5093256;28;20059;-72
2022/07/13 08:48:54;;;;;;;7.90;3.70;;;;;;;;;;5093121;28;20055;-72
2022/07/13 08:51:20;;;;;;;7.45;4.00;;;36.90;73.10;;;;;;5093129;28;20043;-71
2022/07/13 08:53:48;;;;;;;7.55;3.78;;;36.10;38.70;;;;;;5093092;28;20469;-72
2022/07/13 08:56:14;;;;;;;7.82;3.58;;;35.00;39.60;;;;;;5093020;28;20056;-71
2022/07/13 08:58:40;;;;;;;8.25;4.18;;;34.40;40.50;;;;;;5093105;28;20036;-72
2022/07/13 09:01:08;;;;;;;6.18;3.65;;;;;;;;;;5092589;28;20376;-73
2022/07/13 09:03:34;;;;;;;8.77;3.58;;;33.70;76.90;;;;;;5092975;28;20580;-71
2022/07/13 09:06:00;;;;;;;7.00;3.05;;;33.40;51.00;;;;;;5092987;28;20054;-70
2022/07/13 09:08:26;;;;;;;6.05;3.10;;;;;;;;;;5093254;28;20040;-75
2022/07/13 09:10:57;;;;;;;7.60;3.05;;;;;;;;;;5094948;28;20044;-73
2022/07/13 09:13:55;;;;;;;9.18;4.13;;;32.20;43.90;;;;;;5096646;28;20048;-73
2022/07/13 09:16:23;;;;;;;5.03;2.50;;;32.00;45.30;;;;;;5092436;28;20056;-75
2022/07/13 09:18:50;;;;;;;7.18;3.47;;;31.60;44.30;;;;;;5096725;28;20510;-74
2022/07/13 09:21:16;;;;;;;6.50;3.88;;;31.20;44.70;;;;;;5096078;28;20575;-74
2022/07/13 09:23:43;;;;;;;6.70;4.25;;;31.00;45.20;;;;;;5097062;28;20506;-73
2022/07/13 09:26:09;;;;;;;9.48;3.88;;;30.70;46.50;;;;;;5096437;28;20408;-75
2022/07/13 09:28:43;;;;;;;8.63;3.55;;;30.50;47.10;;;;;;5095063;28;20048;-74
2022/07/13 09:31:09;;;;;;;8.40;3.42;;;30.30;47.80;;;;;;5096836;28;20153;-75
2022/07/13 09:33:38;;;;;;;7.18;2.30;;;30.20;47.80;;;;;;5097040;28;20487;-73
2022/07/13 09:36:18;;;;;;;3.47;2.22;;;30.20;47.70;;;;;;5094954;28;20413;-69
2022/07/13 09:38:45;;;;;;;7.63;2.80;;;30.20;47.70;;;;;;5096110;28;20048;-74
2022/07/13 09:41:16;;;;;;;5.35;2.33;;;30.20;47.60;;;;;;5096118;28;20048;-75
2022/07/13 09:46:52;;;;;;;6.15;2.20;;;30.30;47.20;;;;;;5095627;28;20172;-74
2022/07/13 09:49:42;;;;;;;4.85;2.13;;;30.00;46.30;;;;;;5095087;28;20075;-70
2022/07/13 09:52:13;;;;;;;7.65;2.95;;;30.00;47.50;;;;;;5095094;28;20052;-72
2022/07/13 09:54:41;;;;;;;9.15;3.20;;;29.80;47.50;;;;;;5095477;28;20048;-70
2022/07/13 09:57:13;;;;;;;10.55;2.80;;;29.80;47.70;;;;;;5060555;28;20109;-70
2022/07/13 09:59:42;;;;;;;6.30;2.80;;;29.80;48.40;;;;;;5094869;28;20087;-70
2022/07/13 10:02:08;;;;;;;6.93;2.60;;;29.80;48.40;;;;;;5095464;28;20040;-70
2022/07/13 10:04:38;;;;;;;6.13;3.00;;;29.70;48.80;;;;;;5093941;28;20383;-72
2022/07/13 10:07:04;;;;;;;5.10;2.90;;;29.60;48.90;;;;;;5093868;28;20102;-70
2022/07/13 10:09:31;;;;;;;7.20;3.00;;;29.30;48.90;;;;;;5095167;28;20391;-70
2022/07/13 10:11:57;;;;;;;6.60;3.83;;;29.30;49.50;;;;;;5093802;28;20450;-70
2022/07/13 10:14:25;;;;;;;5.72;3.22;;;29.30;49.70;;;;;;5094481;28;20555;-72
2022/07/13 10:16:52;;;;;;;6.43;3.30;;;29.20;50.30;;;;;;5095474;28;20059;-73
2022/07/13 10:19:19;;;;;;;6.50;3.08;;;28.80;51.20;;;;;;5095239;28;20052;-72
2022/07/13 10:22:03;;;;;;;6.68;3.63;;;28.80;52.10;;;;;;5095143;28;20080;-72
2022/07/13 10:24:28;;;;;;;6.97;4.40;;;28.70;52.80;;;;;;5094694;28;20448;-72
2022/07/13 10:27:26;;;;;;;6.03;3.63;;;28.60;52.80;;;;;;5095314;28;20071;-72
2022/07/13 10:30:04;;;;;;;6.25;2.70;;;28.60;53.40;;;;;;5095955;28;20148;-72
2022/07/13 10:32:40;;;;;;;5.45;2.60;;;28.50;52.80;;;;;;5095777;28;20086;-71
2022/07/13 10:35:16;;;;;;;7.70;2.25;;;28.50;52.40;;;;;;5095647;28;20040;-72
2022/07/13 10:38:00;;;;;;;4.70;2.30;;;28.40;52.70;;;;;;5095112;28;20112;-72
2022/07/13 10:40:29;;;;;;;5.40;2.70;;;28.40;52.60;;;;;;5094670;28;20082;-68
2022/07/13 10:43:00;;;;;;;6.35;2.50;;;28.40;52.10;;;;;;5095216;28;20135;-69
2022/07/13 10:45:41;;;;;;;6.05;2.40;;;28.20;52.30;;;;;;5094827;28;20048;-69
2022/07/13 10:48:42;;;;;;;7.18;2.40;;;28.30;53.30;;;;;;5094023;28;20059;-70
2022/07/13 10:51:17;;;;;;;5.75;2.35;;;28.30;51.90;;;;;;5093244;28;20055;-69
2022/07/13 10:54:02;;;;;;;6.07;2.40;;;28.20;51.70;;;;;;5094785;28;20044;-69
2022/07/13 10:56:28;;;;;;;5.35;2.25;;;28.20;52.00;;;;;;5094412;28;20471;-70
2022/07/13 10:58:54;;;;;;;7.15;2.20;;;;;;;;;;5093656;28;20044;-70
2022/07/13 11:01:41;;;;;;;5.28;2.08;;;28.10;51.90;;;;;;5095300;28;20368;-69
2022/07/13 11:04:09;;;;;;;5.07;2.10;;;28.00;52.70;;;;;;5094558;28;20048;-72
2022/07/13 11:06:36;;;;;;;5.95;2.25;;;28.00;52.90;;;;;;5076558;28;20496;-69
2022/07/13 11:09:31;;;;;;;7.22;2.67;;;28.00;53.00;;;;;;5094494;28;20090;-73
2022/07/13 11:11:57;;;;;;;5.72;2.40;;;28.00;53.30;;;;;;5118859;27;20056;-73
2022/07/13 11:14:35;;;;;;;4.40;2.35;;;28.00;53.30;;;;;;5094315;28;20055;-73
2022/07/13 11:17:16;;;;;;;4.50;2.17;;;27.90;53.60;;;;;;5094262;28;20044;-73
2022/07/13 11:20:14;;;;;;;6.13;1.80;;;27.90;53.90;;;;;;5094288;28;20098;-73
2022/07/13 11:25:55;;;;;;;10.32;2.20;;;28.00;54.10;;;;;;5094274;28;20052;-73
2022/07/13 11:28:31;;;;;;;4.68;1.80;;;27.90;53.90;;;;;;5094451;28;20049;-74
2022/07/13 11:30:57;;;;;;;4.10;2.10;;;27.90;54.40;;;;;;5094386;28;20044;-74
2022/07/13 11:33:23;;;;;;;5.50;2.17;;;;;;;;;;5093299;28;20487;-74
2022/07/13 11:35:50;;;;;;;5.97;2.03;;;27.90;54.90;;;;;;5093624;28;20052;-73
2022/07/13 11:38:19;;;;;;;5.35;2.05;;;27.80;55.20;;;;;;5092805;28;20392;-73
2022/07/13 11:40:45;;;;;;;4.67;2.27;;;27.80;55.40;;;;;;5092524;28;20369;-69
2022/07/13 11:43:12;;;;;;;9.65;2.28;;;27.70;55.60;;;;;;5094667;28;20469;-68
2022/07/13 11:45:39;;;;;;;14.73;2.43;;;27.70;56.20;;;;;;5093832;28;20086;-74
2022/07/13 11:48:09;;;;;;;5.37;2.27;;;27.80;56.20;;;;;;5094588;28;20075;-74
2022/07/13 11:50:53;;;;;;;5.57;2.20;;;27.80;56.60;;;;;;5093761;28;20036;-74
2022/07/13 11:53:23;;;;;;;6.97;2.77;;;27.80;58.80;;;;;;5093841;28;20055;-74
2022/07/13 11:55:50;;;;;;;6.53;2.50;;;27.70;59.20;;;;;;5077017;28;20427;-74
2022/07/13 11:58:31;;;;;;;6.03;2.85;;;27.70;60.70;;;;;;5093454;28;20044;-74
2022/07/13 12:01:01;;;;;;;6.10;2.73;;;27.70;62.20;;;;;;5093771;28;20044;-74
2022/07/13 12:03:31;;;;;;;5.33;2.53;;;;;;;;;;5093606;28;20063;-74
2022/07/13 12:06:01;;;;;;;6.13;2.45;;;27.50;61.80;;;;;;5094059;28;20387;-74
2022/07/13 12:08:28;;;;;;;7.03;2.37;;;27.50;63.70;;;;;;5093525;28;20050;-74
2022/07/13 12:10:56;;;;;;;5.47;2.57;;;27.40;64.60;;;;;;5093496;28;20080;-74
2022/07/13 12:13:21;;;;;;;6.40;2.63;;;27.40;64.70;;;;;;5092972;28;20447;-73
2022/07/13 12:15:47;;;;;;;8.03;2.63;;;27.40;64.30;;;;;;5093211;28;20052;-73
2022/07/13 12:18:14;;;;;;;6.87;2.57;;;27.30;65.30;;;;;;5093184;28;20088;-76
2022/07/13 12:20:40;;;;;;;5.10;2.23;;;27.20;66.10;;;;;;5092376;28;20044;-75
2022/07/13 12:23:08;;;;;;;9.27;2.47;;;27.20;68.10;;;;;;5093369;28;20480;-73
2022/07/13 12:25:39;;;;;;;8.87;2.70;;;27.30;67.80;;;;;;5093297;28;20126;-71
2022/07/13 12:28:10;;;;;;;5.30;2.40;;;27.30;68.70;;;;;;5093907;28;20123;-69
2022/07/13 12:30:37;;;;;;;9.07;2.60;;;27.10;71.50;;;;;;5094171;28;20040;-69
2022/07/13 12:33:11;;;;;;;5.67;3.00;;;26.90;73.10;;;;;;5093222;28;20131;-72
2022/07/13 12:35:41;;;;;;;9.27;2.80;;;26.70;76.10;;;;;;5092885;28;20333;-71
2022/07/13 12:38:09;;;;;;;12.73;2.90;;;26.60;76.20;;;;;;5093127;28;20051;-71
2022/07/13 12:40:59;;;;;;;7.57;2.93;;;26.40;78.80;;;;;;5092796;28;20060;-71
2022/07/13 12:43:30;;;;;;;11.77;3.13;;;26.30;81.40;;;;;;5093575;28;20101;-73
2022/07/13 12:46:01;;;;;;;8.33;3.27;;;26.10;86.90;;;;;;5095415;28;20496;-72
2022/07/13 12:48:29;;;;;;;7.87;3.13;;;26.10;86.10;;;;;;5097202;28;20059;-72
2022/07/13 12:51:05;;;;;;;11.30;3.07;;;26.00;86.90;;;;;;5097916;28;20047;-72
2022/07/13 12:53:52;;;;;;;9.43;3.40;;;25.90;89.50;;;;;;5079215;28;20087;-73
2022/07/13 12:56:23;;;;;;;9.53;3.10;;;25.90;89.00;;;;;;5096638;28;20122;-75
2022/07/13 12:58:54;;;;;;;11.13;3.07;;;25.80;90.20;;;;;;5096822;28;20052;-74
2022/07/13 13:01:30;;;;;;;7.20;2.80;;;25.60;90.30;;;;;;5096834;28;20040;-73
2022/07/13 13:04:00;;;;;;;7.60;3.40;;;25.60;91.20;;;;;;5096917;28;20142;-73
2022/07/13 13:06:26;;;;;;;8.67;3.33;;;25.60;92.20;;;;;;5097872;28;20118;-76